Time;durP1;ratioP1;P1;durP2;ratioP2;P2;SDS_P1;SDS_P2;PMS_P1;PMS_P2;Temp;Humidity;BMP_temperature;BMP_pressure;BME280_temperature;BME280_humidity;BME280_pressure;Samples;Min_cycle;Max_cycle;Signal;HPM_P1;HPM_P2
2022/08/19 00:00:08;;;;;;;23.15;18.58;;;;;;;16.67;100.00;100293.09;4952262;28;20038;-68
2022/08/19 00:02:35;;;;;;;19.75;17.58;;;;;;;16.72;100.00;100306.84;4943275;28;20078;-68
2022/08/19 00:05:01;;;;;;;21.27;18.92;;;;;;;16.59;100.00;100295.50;4936248;28;20043;-68
2022/08/19 00:07:26;;;;;;;19.15;17.13;;;;;;;16.65;100.00;100305.63;4999974;28;20062;-68
2022/08/19 00:09:52;;;;;;;19.70;17.80;;;;;;;16.62;100.00;100313.84;4950304;28;20077;-68
2022/08/19 00:12:17;;;;;;;18.92;16.88;;;;;;;16.51;100.00;100304.00;4951279;28;20027;-68
2022/08/19 00:14:43;;;;;;;19.00;17.08;;;;;;;16.50;100.00;100309.41;4951249;28;20027;-68
2022/08/19 00:17:08;;;;;;;18.25;16.30;;;;;;;16.49;100.00;100319.22;4950699;28;20107;-68
2022/08/19 00:19:35;;;;;;;19.63;17.58;;;;;;;16.23;100.00;100278.72;4945727;28;20424;-68
2022/08/19 00:22:02;;;;;;;19.90;17.58;;;;;;;16.46;100.00;100315.94;4939966;28;20027;-68
2022/08/19 00:24:28;;;;;;;21.52;19.23;;;;;;;16.39;100.00;100314.72;4940133;28;20081;-68
2022/08/19 00:26:56;;;;;;;23.25;20.95;;;;;;;16.29;100.00;100310.06;4938240;28;20448;-68
2022/08/19 00:29:22;;;;;;;23.17;20.83;;;;;;;16.30;100.00;100310.94;4950985;28;20031;-68
2022/08/19 00:31:49;;;;;;;24.52;22.02;;;;;;;16.25;100.00;100307.78;4927376;28;20031;-68
2022/08/19 00:34:15;;;;;;;22.52;20.17;;;;;;;16.26;100.00;100315.59;4950876;28;20070;-68
2022/08/19 00:36:41;;;;;;;22.80;20.05;;;;;;;15.82;100.00;100251.81;4951442;28;20061;-68
2022/08/19 00:39:07;;;;;;;23.42;20.55;;;;;;;16.16;100.00;100314.59;4954362;28;20118;-68
2022/08/19 00:41:33;;;;;;;25.45;22.80;;;;;;;16.12;100.00;100313.13;4951846;28;20125;-68
2022/08/19 00:44:01;;;;;;;24.77;22.20;;;;;;;16.13;100.00;100319.28;4946007;28;20401;-68
2022/08/19 00:46:27;;;;;;;21.13;18.60;;;;;;;16.08;100.00;100316.16;4943036;28;20055;-68
2022/08/19 00:48:53;;;;;;;22.10;19.83;;;;;;;16.03;100.00;100310.31;4946979;28;20389;-68
2022/08/19 00:51:19;;;;;;;23.05;20.85;;;;;;;16.00;100.00;100308.75;4950056;28;20041;-69
2022/08/19 00:53:44;;;;;;;22.00;19.80;;;;;;;16.01;100.00;100320.22;4940280;28;20335;-68
2022/08/19 00:56:10;;;;;;;21.83;19.75;;;;;;;16.01;100.00;100315.75;4945402;28;20040;-68
2022/08/19 00:58:36;;;;;;;20.58;18.65;;;;;;;15.90;100.00;100297.16;4943094;28;20042;-68
2022/08/19 01:01:03;;;;;;;22.58;20.02;;;;;;;15.94;100.00;100303.06;4948822;28;20036;-68
2022/08/19 01:03:28;;;;;;;21.90;19.75;;;;;;;15.78;100.00;100298.06;4961361;28;20544;-68
2022/08/19 01:05:54;;;;;;;25.42;22.83;;;;;;;15.75;100.00;100307.06;4941199;28;20027;-68
2022/08/19 01:08:20;;;;;;;26.77;24.00;;;;;;;15.79;100.00;100302.38;4953100;28;20477;-68
2022/08/19 01:10:52;;;;;;;25.55;22.00;;;;;;;15.83;100.00;100298.56;4936782;29;20031;-68
2022/08/19 01:13:21;;;;;;;23.55;21.23;;;;;;;15.85;100.00;100299.28;4953600;29;20062;-68
2022/08/19 01:15:52;;;;;;;22.45;20.25;;;;;;;15.85;100.00;100309.88;4930491;28;20027;-68
2022/08/19 01:18:19;;;;;;;24.30;21.70;;;;;;;15.80;100.00;100322.63;5004582;28;20055;-68
2022/08/19 01:20:45;;;;;;;25.15;22.58;;;;;;;15.57;100.00;100279.28;4937410;28;20039;-68
2022/08/19 01:23:11;;;;;;;22.08;19.88;;;;;;;15.74;100.00;100315.97;4953887;28;20066;-68
2022/08/19 01:25:55;;;;;;;25.08;22.58;;;;;;;15.71;100.00;100308.25;4937109;28;20097;-68
2022/08/19 01:28:26;;;;;;;25.77;23.17;;;;;;;15.78;100.00;100319.25;4954198;28;20027;-68
2022/08/19 01:30:53;;;;;;;25.08;22.65;;;;;;;15.79;100.00;100318.28;4952562;28;20046;-68
2022/08/19 01:33:19;;;;;;;26.45;23.67;;;;;;;15.78;100.00;100327.22;4933713;28;20751;-67
2022/08/19 01:35:48;;;;;;;25.73;23.20;;;;;;;15.76;100.00;100334.41;4953699;28;20114;-67
2022/08/19 01:38:26;;;;;;;26.58;23.80;;;;;;;15.78;100.00;100332.50;4954483;28;20485;-68
2022/08/19 01:40:52;;;;;;;27.88;25.15;;;;;;;15.77;100.00;100325.50;4937742;28;20028;-68
2022/08/19 01:43:18;;;;;;;27.52;24.58;;;;;;;15.72;100.00;100320.53;4954010;28;20108;-68
2022/08/19 01:45:44;;;;;;;26.67;24.02;;;;;;;15.75;100.00;100330.06;4953752;28;20478;-68
2022/08/19 01:48:09;;;;;;;25.90;23.30;;;;;;;15.75;100.00;100340.66;4953720;28;20122;-68
2022/08/19 01:50:35;;;;;;;25.35;23.00;;;;;;;15.71;100.00;100339.19;4954793;28;20088;-68
2022/08/19 01:53:03;;;;;;;26.63;23.48;;;;;;;15.72;100.00;100340.88;4953945;28;20039;-68
2022/08/19 01:55:28;;;;;;;24.98;22.42;;;;;;;15.74;100.00;100349.56;4954654;28;20477;-68
2022/08/19 01:57:56;;;;;;;25.92;23.23;;;;;;;15.72;100.00;100348.81;4954260;29;20106;-69
2022/08/19 02:00:23;;;;;;;24.90;22.38;;;;;;;15.71;100.00;100344.50;4953625;28;20019;-68
2022/08/19 02:02:48;;;;;;;28.92;26.08;;;;;;;15.66;100.00;100351.91;4954163;28;20137;-68
2022/08/19 02:05:16;;;;;;;28.60;25.73;;;;;;;15.62;100.00;100350.44;4955547;28;20028;-68
2022/08/19 02:07:41;;;;;;;27.98;25.08;;;;;;;15.57;100.00;100352.59;4954099;29;20023;-68
2022/08/19 02:10:10;;;;;;;34.08;30.58;;;;;;;15.53;100.00;100349.31;4953636;28;20042;-68
2022/08/19 02:12:35;;;;;;;30.00;27.05;;;;;;;15.54;100.00;100352.81;4954036;28;20062;-69
2022/08/19 02:15:02;;;;;;;32.03;28.77;;;;;;;15.58;100.00;100349.00;4953505;28;20051;-68
2022/08/19 02:17:28;;;;;;;32.92;29.52;;;;;;;15.61;100.00;100348.78;4946491;28;20024;-68
2022/08/19 02:19:54;;;;;;;36.60;32.72;;;;;;;15.65;100.00;100350.22;4945666;28;20031;-68
2022/08/19 02:22:20;;;;;;;36.60;32.90;;;;;;;15.69;100.00;100362.28;4936509;29;20031;-68
2022/08/19 02:24:47;;;;;;;40.67;36.78;;;;;;;15.67;100.00;100346.53;4954092;28;20035;-68
2022/08/19 02:27:13;;;;;;;43.10;38.63;;;;;;;15.67;100.00;100341.22;4942055;28;20032;-68
2022/08/19 02:29:38;;;;;;;43.92;39.22;;;;;;;15.77;100.00;100357.31;5019472;28;20030;-69
2022/08/19 02:32:04;;;;;;;45.30;40.53;;;;;;;15.73;100.00;100348.72;4940883;28;20036;-68
2022/08/19 02:34:29;;;;;;;43.83;39.65;;;;;;;15.82;100.00;100355.16;4948097;28;20028;-69
2022/08/19 02:36:55;;;;;;;45.28;40.85;;;;;;;15.74;100.00;100341.63;4946115;28;20427;-68
2022/08/19 02:39:20;;;;;;;43.83;39.50;;;;;;;15.66;100.00;100342.16;4953460;28;20042;-69
2022/08/19 02:41:45;;;;;;;51.22;45.85;;;;;;;15.69;100.00;100341.09;4953680;29;20042;-68
2022/08/19 02:44:12;;;;;;;45.60;40.90;;;;;;;15.73;100.00;100337.28;4952940;28;20027;-68
2022/08/19 02:46:37;;;;;;;44.38;39.88;;;;;;;15.75;100.00;100338.00;4953512;28;20096;-68
2022/08/19 02:49:05;;;;;;;48.35;43.35;;;;;;;15.46;100.00;100291.56;4953621;28;20473;-68
2022/08/19 02:51:36;;;;;;;48.90;43.80;;;;;;;15.76;100.00;100347.66;4953441;29;20106;-68
2022/08/19 02:54:03;;;;;;;46.45;39.55;;;;;;;15.77;100.00;100350.19;4953201;28;20070;-68
2022/08/19 02:56:30;;;;;;;50.28;45.13;;;;;;;15.69;100.00;100346.41;4952854;29;20027;-68
2022/08/19 02:58:56;;;;;;;54.28;44.53;;;;;;;15.75;100.00;100346.78;4947927;29;20462;-68
2022/08/19 03:01:30;;;;;;;55.80;47.05;;;;;;;15.82;100.00;100347.19;4933301;29;20042;-68
2022/08/19 03:03:56;;;;;;;50.97;46.08;;;;;;;15.85;100.00;100346.97;4948167;29;20035;-68
2022/08/19 03:06:21;;;;;;;48.15;43.33;;;;;;;15.82;100.00;100341.91;4960724;28;20019;-68
2022/08/19 03:08:48;;;;;;;48.85;43.80;;;;;;;15.82;100.00;100347.19;4952176;28;20511;-68
2022/08/19 03:11:19;;;;;;;50.13;44.95;;;;;;;15.69;100.00;100341.09;4953106;29;20115;-68
2022/08/19 03:13:44;;;;;;;47.97;42.80;;;;;;;15.69;100.00;100351.69;4936168;28;20118;-68
2022/08/19 03:16:11;;;;;;;52.60;47.17;;;;;;;15.76;100.00;100358.25;4953183;28;20454;-68
2022/08/19 03:18:36;;;;;;;52.95;47.70;;;;;;;15.77;100.00;100349.34;4952920;28;20493;-68
2022/08/19 03:21:01;;;;;;;59.75;53.45;;;;;;;15.68;100.00;100334.94;4952583;28;20054;-68
2022/08/19 03:23:27;;;;;;;55.05;49.25;;;;;;;15.76;100.00;100347.66;4953041;29;20033;-68
2022/08/19 03:25:53;;;;;;;60.03;53.08;;;;;;;15.82;100.00;100352.50;4952776;28;20531;-68
2022/08/19 03:28:20;;;;;;;67.70;51.47;;;;;;;15.85;100.00;100353.13;4952808;28;20028;-68
2022/08/19 03:31:04;;;;;;;60.22;53.45;;;;;;;15.86;100.00;100364.56;4939657;28;20066;-68
2022/08/19 03:33:30;;;;;;;58.63;52.10;;;;;;;15.83;100.00;100354.19;4934448;28;20028;-68
2022/08/19 03:36:22;;;;;;;65.85;58.67;;;;;;;15.87;100.00;100362.78;4931121;28;20035;-68
2022/08/19 03:38:50;;;;;;;57.65;51.42;;;;;;;15.89;100.00;100369.66;4935967;28;20054;-68
2022/08/19 03:41:19;;;;;;;59.53;53.17;;;;;;;15.88;100.00;100360.03;4934474;29;20031;-68
2022/08/19 03:43:49;;;;;;;72.68;53.13;;;;;;;15.89;100.00;100367.00;4942859;28;20084;-68
2022/08/19 03:46:21;;;;;;;59.55;50.40;;;;;;;15.91;100.00;100366.91;4952577;28;20481;-68
2022/08/19 03:48:48;;;;;;;57.65;51.67;;;;;;;15.85;100.00;100357.56;4941428;28;20031;-68
2022/08/19 03:51:22;;;;;;;65.20;55.78;;;;;;;15.88;100.00;100353.88;4952508;29;20118;-68
2022/08/19 03:53:48;;;;;;;76.93;61.05;;;;;;;15.92;100.00;100366.78;4951946;28;20066;-68
2022/08/19 03:56:14;;;;;;;74.15;66.22;;;;;;;15.91;100.00;100367.75;4941744;28;20099;-68
2022/08/19 03:58:40;;;;;;;69.10;58.13;;;;;;;15.78;100.00;100340.44;4948521;28;20023;-68
2022/08/19 04:01:10;;;;;;;75.25;64.32;;;;;;;15.85;100.00;100357.56;4934893;28;20032;-68
2022/08/19 04:03:38;;;;;;;66.88;56.90;;;;;;;15.86;100.00;100359.28;4950843;28;20042;-68
2022/08/19 04:06:22;;;;;;;77.63;63.58;;;;;;;15.86;100.00;100351.31;4952684;28;20115;-68
2022/08/19 04:08:50;;;;;;;76.87;58.40;;;;;;;15.78;100.00;100346.56;4951844;28;20046;-68
2022/08/19 04:11:18;;;;;;;65.60;53.80;;;;;;;15.80;100.00;100360.56;4943150;28;20044;-68
2022/08/19 04:13:44;;;;;;;66.25;53.33;;;;;;;15.77;100.00;100362.59;4949664;28;20023;-68
2022/08/19 04:16:10;;;;;;;61.78;52.67;;;;;;;15.70;100.00;100348.94;4952442;28;20462;-68
2022/08/19 04:18:37;;;;;;;70.65;55.38;;;;;;;15.68;100.00;100364.09;4944246;28;20027;-68
2022/08/19 04:21:03;;;;;;;62.03;55.22;;;;;;;15.67;100.00;100365.06;4946754;28;20032;-68
2022/08/19 04:23:28;;;;;;;68.78;54.55;;;;;;;15.64;100.00;100361.78;4951905;28;20031;-68
2022/08/19 04:25:54;;;;;;;76.40;58.60;;;;;;;15.60;100.00;100373.56;4951833;28;20062;-68
2022/08/19 04:28:20;;;;;;;69.22;56.67;;;;;;;15.41;100.00;100336.06;4930778;28;20115;-68
2022/08/19 04:30:48;;;;;;;77.53;59.63;;;;;;;15.50;100.00;100361.91;4944429;28;20114;-68
2022/08/19 04:33:16;;;;;;;76.57;58.25;;;;;;;15.45;100.00;100364.00;4946687;28;20104;-67
2022/08/19 04:35:44;;;;;;;77.43;57.33;;;;;;;15.44;100.00;100357.03;4960706;28;20023;-68
2022/08/19 04:38:10;;;;;;;70.57;58.17;;;;;;;15.44;100.00;100354.38;4952061;28;20043;-68
2022/08/19 04:43:33;;;;;;;74.55;60.97;;;;;;;15.40;100.00;100360.84;4951605;29;20041;-68
2022/08/19 04:46:08;;;;;;;90.45;69.40;;;;;;;15.41;100.00;100359.91;4950103;28;20090;-68
2022/08/19 04:48:34;;;;;;;77.38;63.63;;;;;;;15.44;100.00;100357.03;4951893;28;20035;-69
2022/08/19 04:51:00;;;;;;;75.80;59.25;;;;;;;15.04;100.00;100304.22;4950493;28;20037;-69
2022/08/19 04:53:30;;;;;;;72.07;58.22;;;;;;;15.43;100.00;100357.97;4949581;28;20117;-70
2022/08/19 04:55:57;;;;;;;70.18;57.38;;;;;;;15.41;100.00;100365.19;4951383;28;20158;-69
2022/08/19 04:58:24;;;;;;;83.15;60.72;;;;;;;15.43;100.00;100376.50;4950871;28;20496;-69
2022/08/19 05:00:49;;;;;;;72.32;59.10;;;;;;;15.39;100.00;100375.03;4945881;28;20094;-68
2022/08/19 05:03:16;;;;;;;71.68;59.75;;;;;;;15.45;100.00;100369.28;4947803;28;20059;-68
2022/08/19 05:05:45;;;;;;;74.68;60.83;;;;;;;15.41;100.00;100378.44;4934749;28;20426;-68
2022/08/19 05:08:21;;;;;;;76.13;59.35;;;;;;;15.44;100.00;100386.16;4951290;28;20058;-68
2022/08/19 05:10:51;;;;;;;78.70;60.58;;;;;;;15.46;100.00;100392.19;4928279;28;20047;-68
2022/08/19 05:13:19;;;;;;;79.05;62.63;;;;;;;15.42;100.00;100380.09;4951655;28;20038;-68
2022/08/19 05:15:53;;;;;;;77.15;59.03;;;;;;;15.46;100.00;100386.88;5002729;28;20040;-68
2022/08/19 05:23:57;;;;;;;78.30;61.53;;;;;;;15.48;100.00;100409.69;4962622;28;20054;-68
2022/08/19 05:26:23;;;;;;;82.45;63.03;;;;;;;15.44;100.00;100394.97;4945567;28;20032;-67
2022/08/19 05:28:48;;;;;;;82.10;64.50;;;;;;;15.42;100.00;100396.84;4928689;28;20032;-69
2022/08/19 05:31:13;;;;;;;84.45;63.53;;;;;;;15.50;100.00;100409.59;4929219;28;20035;-68
2022/08/19 05:33:39;;;;;;;87.55;61.63;;;;;;;15.46;100.00;100398.34;4944586;28;20397;-69
2022/08/19 05:36:05;;;;;;;71.55;58.63;;;;;;;15.29;100.00;100364.25;4945265;28;20028;-69
2022/08/19 05:38:31;;;;;;;73.18;60.20;;;;;;;15.62;100.00;100403.41;4951546;28;20035;-69
2022/08/19 05:40:57;;;;;;;81.45;58.85;;;;;;;15.67;100.00;100402.16;4950634;28;20084;-69
2022/08/19 05:43:22;;;;;;;82.25;63.53;;;;;;;15.74;100.00;100397.25;4951152;28;20106;-69
2022/08/19 05:45:50;;;;;;;75.38;57.80;;;;;;;15.80;100.00;100402.97;4945174;28;20466;-68
2022/08/19 05:48:17;;;;;;;69.53;55.45;;;;;;;15.69;100.00;100380.84;4947095;28;20108;-69
2022/08/19 05:50:42;;;;;;;70.40;55.40;;;;;;;15.91;100.00;100402.19;5010494;28;20021;-69
2022/08/19 05:53:08;;;;;;;76.28;58.00;;;;;;;15.79;100.00;100377.41;4952471;28;20034;-68
2022/08/19 05:55:34;;;;;;;72.72;53.22;;;;;;;16.02;100.00;100404.91;4965480;28;20023;-67
2022/08/19 05:58:01;;;;;;;66.47;55.88;;;;;;;16.08;100.00;100411.59;4946675;28;20039;-69
2022/08/19 06:00:27;;;;;;;69.35;54.10;;;;;;;16.13;100.00;100410.28;5010196;28;20046;-68
2022/08/19 06:02:56;;;;;;;62.38;51.28;;;;;;;16.05;100.00;100394.09;4939670;28;20036;-69
2022/08/19 06:05:21;;;;;;;60.83;48.58;;;;;;;16.27;100.00;100412.78;4954367;28;20031;-68
2022/08/19 06:07:47;;;;;;;64.65;49.58;;;;;;;16.34;100.00;100419.31;4949655;28;20032;-69
2022/08/19 06:10:12;;;;;;;59.60;50.40;;;;;;;16.35;100.00;100407.75;4936052;28;20032;-69
2022/08/19 06:12:38;;;;;;;62.67;52.47;;;;;;;16.34;100.00;100400.75;4949371;28;20031;-68
2022/08/19 06:15:13;;;;;;;64.20;47.95;;;;;;;16.51;100.00;100418.06;4952857;28;20032;-68
2022/08/19 06:17:38;;;;;;;52.97;46.17;;;;;;;16.48;100.00;100404.19;4950993;28;20073;-68
2022/08/19 06:20:10;;;;;;;54.17;48.15;;;;;;;16.63;100.00;100425.13;4940023;28;20040;-69
2022/08/19 06:22:42;;;;;;;58.33;47.85;;;;;;;16.51;100.00;100398.66;4936254;28;20097;-69
2022/08/19 06:25:09;;;;;;;60.00;46.25;;;;;;;16.71;100.00;100417.47;4945955;28;20442;-68
2022/08/19 06:27:35;;;;;;;55.88;49.15;;;;;;;16.81;100.00;100425.56;4949895;29;20122;-69
2022/08/19 06:30:01;;;;;;;53.97;45.47;;;;;;;16.90;100.00;100416.09;4953135;28;20444;-68
2022/08/19 06:32:26;;;;;;;52.97;43.00;;;;;;;16.98;100.00;100422.47;4943359;28;20126;-69
2022/08/19 06:34:52;;;;;;;53.22;43.40;;;;;;;17.03;100.00;100415.03;4953741;28;20035;-69
2022/08/19 06:37:17;;;;;;;52.95;43.75;;;;;;;17.08;100.00;100419.97;4950225;28;20375;-68
2022/08/19 06:39:44;;;;;;;51.42;39.92;;;;;;;17.09;100.00;100414.56;4940985;28;20031;-69
2022/08/19 06:42:12;;;;;;;46.33;38.20;;;;;;;17.15;100.00;100416.72;4942198;28;20130;-69
2022/08/19 06:44:40;;;;;;;45.97;37.25;;;;;;;17.17;100.00;100417.44;4939959;28;20109;-69
2022/08/19 06:47:08;;;;;;;52.80;42.05;;;;;;;17.15;100.00;100421.19;4953062;28;20032;-69
2022/08/19 06:49:34;;;;;;;56.33;41.72;;;;;;;17.13;100.00;100418.66;5019148;28;20042;-69
2022/08/19 06:52:00;;;;;;;49.22;40.45;;;;;;;17.16;100.00;100418.44;4967714;28;20069;-68
2022/08/19 06:54:26;;;;;;;46.17;38.35;;;;;;;17.12;100.00;100411.66;4952796;29;20035;-69
2022/08/19 06:56:52;;;;;;;45.67;38.95;;;;;;;17.23;100.00;100418.81;4952658;29;20028;-68
2022/08/19 06:59:19;;;;;;;45.67;37.33;;;;;;;17.22;100.00;100420.59;4950653;28;20370;-68
2022/08/19 07:01:48;;;;;;;52.13;37.08;;;;;;;17.28;100.00;100422.78;4936773;28;20038;-68
2022/08/19 07:04:15;;;;;;;38.65;33.10;;;;;;;17.24;100.00;100421.31;4943522;28;20533;-68
2022/08/19 07:06:41;;;;;;;50.40;38.03;;;;;;;17.21;100.00;100426.88;4952630;28;20473;-68
2022/08/19 07:09:08;;;;;;;42.45;35.05;;;;;;;17.25;100.00;100431.00;4952424;28;20073;-68
2022/08/19 07:11:34;;;;;;;40.92;35.25;;;;;;;17.22;100.00;100423.25;4952798;28;20035;-68
2022/08/19 07:14:00;;;;;;;41.33;35.30;;;;;;;17.31;100.00;100435.81;4957925;28;20492;-68
2022/08/19 07:16:27;;;;;;;39.92;33.50;;;;;;;17.32;100.00;100442.84;4949243;28;20100;-68
2022/08/19 07:18:52;;;;;;;39.53;34.47;;;;;;;17.36;100.00;100441.63;4942570;28;20032;-68
2022/08/19 07:21:24;;;;;;;39.25;34.78;;;;;;;17.38;100.00;100445.00;4941739;28;20036;-68
2022/08/19 07:23:50;;;;;;;47.80;34.55;;;;;;;17.48;100.00;100452.25;4951823;29;20034;-68
2022/08/19 07:26:19;;;;;;;44.17;33.15;;;;;;;17.60;100.00;100461.97;4952110;28;20094;-67
2022/08/19 07:28:45;;;;;;;46.80;36.55;;;;;;;17.70;100.00;100454.97;4952744;28;20039;-69
2022/08/19 07:31:13;;;;;;;40.25;35.75;;;;;;;17.75;100.00;100458.94;4951431;28;20023;-67
2022/08/19 07:33:39;;;;;;;50.08;36.65;;;;;;;17.50;100.00;100394.53;4947055;28;20028;-67
2022/08/19 07:36:06;;;;;;;37.70;31.52;;;;;;;17.91;100.00;100457.75;4966424;28;20436;-67
2022/08/19 07:38:33;;;;;;;39.05;33.67;;;;;;;18.03;100.00;100454.94;4925154;28;20066;-76
2022/08/19 07:40:58;;;;;;;35.65;31.95;;;;;;;18.13;100.00;100460.38;4932220;28;20035;-67
2022/08/19 07:43:26;;;;;;;37.88;30.13;;;;;;;18.17;100.00;100462.69;4936981;28;20019;-67
2022/08/19 07:45:53;;;;;;;34.33;29.75;;;;;;;18.12;100.00;100445.38;4929972;28;20043;-67
2022/08/19 07:48:18;;;;;;;37.47;27.90;;;;;;;18.31;100.00;100469.53;4951314;28;20046;-68
2022/08/19 07:50:44;;;;;;;42.53;30.73;;;;;;;18.30;100.00;100450.06;4951581;28;20039;-68
2022/08/19 07:53:09;;;;;;;38.55;28.63;;;;;;;18.46;100.00;100462.09;4943085;28;20039;-68
2022/08/19 07:55:35;;;;;;;33.42;27.70;;;;;;;18.49;100.00;100451.22;4943172;28;20050;-68
2022/08/19 07:58:00;;;;;;;37.30;26.98;;;;;;;18.52;100.00;100457.16;4945584;28;20035;-68
2022/08/19 08:00:26;;;;;;;30.92;25.17;;;;;;;18.55;100.00;100464.06;4948771;28;20061;-68
2022/08/19 08:02:52;;;;;;;34.35;25.45;;;;;;;18.51;100.00;100450.16;4937785;28;20036;-68
2022/08/19 08:10:46;;;;;;;29.20;23.88;;;;;;;18.42;100.00;100463.34;4951669;28;20130;-68
2022/08/19 08:13:11;;;;;;;28.83;24.40;;;;;;;18.50;100.00;100466.22;4944662;28;20106;-69
2022/08/19 08:15:38;;;;;;;31.52;23.17;;;;;;;18.47;100.00;100458.47;4948116;28;20028;-68
2022/08/19 08:18:04;;;;;;;28.55;19.92;;;;;;;18.66;100.00;100472.84;4937973;28;20040;-68
2022/08/19 08:20:29;;;;;;;26.90;19.65;;;;;;;18.84;100.00;100481.97;4936866;28;20101;-68
2022/08/19 08:25:38;;;;;;;21.67;19.40;;;;;;;19.05;100.00;100489.16;4941768;28;20522;-67
2022/08/19 08:28:04;;;;;;;29.60;19.85;;;;;;;19.13;100.00;100484.84;4950169;28;20035;-68
2022/08/19 08:30:32;;;;;;;35.20;22.48;;;;;;;19.23;100.00;100490.28;4951662;28;20069;-68
2022/08/19 08:32:57;;;;;;;29.65;21.13;;;;;;;19.32;100.00;100487.66;4951758;28;20038;-68
2022/08/19 08:35:24;;;;;;;27.48;19.10;;;;;;;19.44;100.00;100480.47;4949125;28;20031;-68
2022/08/19 08:37:52;;;;;;;29.25;19.75;;;;;;;19.55;100.00;100482.22;4940842;28;20500;-68
2022/08/19 08:40:34;;;;;;;22.02;16.27;;;;;;;19.60;100.00;100469.34;4935906;28;20035;-68
2022/08/19 08:43:06;;;;;;;18.50;16.02;;;;;;;19.87;100.00;100498.97;5013675;28;20031;-68
2022/08/19 08:45:35;;;;;;;17.13;13.25;;;;;;;20.02;100.00;100497.59;4937042;29;20032;-67
2022/08/19 08:48:06;;;;;;;24.88;13.30;;;;;;;20.07;100.00;100500.72;4949871;28;20114;-68
2022/08/19 08:50:35;;;;;;;16.13;12.68;;;;;;;20.10;100.00;100505.78;4951294;28;20478;-68
2022/08/19 08:53:01;;;;;;;21.52;14.60;;;;;;;20.23;100.00;100513.53;4951238;28;20055;-68
2022/08/19 08:55:29;;;;;;;15.65;13.55;;;;;;;20.30;100.00;100512.06;5011343;28;20028;-67
2022/08/19 08:58:02;;;;;;;17.10;14.00;;;;;;;20.41;100.00;100503.94;4943794;28;20058;-68
2022/08/19 09:00:35;;;;;;;17.40;13.33;;;;;;;20.43;100.00;100509.97;4944160;28;20118;-68
2022/08/19 09:03:02;;;;;;;17.00;12.95;;;;;;;20.35;100.00;100499.97;4928859;28;20039;-68
2022/08/19 09:06:02;;;;;;;13.65;11.35;;;;;;;20.39;100.00;100512.06;4949344;28;20028;-68
2022/08/19 09:08:43;;;;;;;16.10;12.00;;;;;;;20.47;100.00;100507.88;4935445;28;20506;-68
2022/08/19 09:11:15;;;;;;;18.45;11.68;;;;;;;20.50;100.00;100504.94;4922998;28;20027;-68
2022/08/19 09:14:07;;;;;;;11.88;10.68;;;;;;;20.43;100.00;100495.78;4921011;28;20059;-68
2022/08/19 09:16:32;;;;;;;15.32;11.95;;;;;;;20.45;100.00;100499.19;4931301;28;20043;-68
2022/08/19 09:19:02;;;;;;;14.45;11.63;;;;;;;20.10;100.00;100446.22;4936804;28;20390;-68
2022/08/19 09:21:28;;;;;;;12.55;10.10;;;;;;;20.36;100.00;100496.34;4934114;28;20150;-68
2022/08/19 09:23:54;;;;;;;14.15;12.32;;;;;;;20.43;100.00;100495.78;4934091;28;20122;-68
2022/08/19 09:26:22;;;;;;;13.63;11.20;;;;;;;20.55;100.00;100494.69;4937672;28;20019;-68
2022/08/19 09:28:48;;;;;;;14.45;10.02;;;;;;;20.67;100.00;100491.75;4944518;29;20170;-68
2022/08/19 09:31:19;;;;;;;20.00;12.52;;;;;;;20.72;100.00;100497.50;4941474;28;20086;-68
2022/08/19 09:33:45;;;;;;;16.58;12.00;;;;;;;20.82;100.00;100492.16;4936180;28;20437;-67
2022/08/19 09:36:13;;;;;;;11.57;9.55;;;;;;;20.78;100.00;100498.78;4945581;28;20050;-69
2022/08/19 09:38:41;;;;;;;14.13;11.45;;;;;;;20.75;100.00;100491.06;4922703;28;20043;-68
2022/08/19 09:41:12;;;;;;;14.40;10.02;;;;;;;20.82;100.00;100473.47;4923557;28;20034;-68
2022/08/19 09:43:37;;;;;;;12.70;9.02;;;;;;;21.22;100.00;100490.25;4946693;28;20036;-68
2022/08/19 09:46:06;;;;;;;19.95;9.77;;;;;;;21.56;100.00;100506.66;4938706;28;20028;-68
2022/08/19 09:48:32;;;;;;;13.93;9.95;;;;;;;21.76;100.00;100496.72;4954533;28;20027;-68
2022/08/19 09:51:09;;;;;;;12.00;9.10;;;;;;;21.88;100.00;100499.06;5020229;28;20393;-69
2022/08/19 09:53:36;;;;;;;13.02;8.25;;;;;;;21.76;100.00;100475.34;4936004;29;20024;-68
2022/08/19 09:56:02;;;;;;;14.52;9.95;;;;;;;21.69;100.00;100487.59;4947024;28;20030;-68
2022/08/19 09:58:29;;;;;;;11.18;8.18;;;;;;;21.50;100.00;100471.59;4947401;28;20039;-68
2022/08/19 10:00:56;;;;;;;15.80;9.30;;;;;;;21.72;100.00;100493.50;4935905;28;20593;-68
2022/08/19 10:03:21;;;;;;;15.80;8.73;;;;;;;21.74;100.00;100496.88;4953094;28;20385;-68
2022/08/19 10:05:49;;;;;;;10.95;7.70;;;;;;;21.65;100.00;100491.56;4949742;29;20028;-68
2022/08/19 10:08:24;;;;;;;9.85;7.72;;;;;;;21.58;100.00;100493.13;4949633;28;20031;-68
2022/08/19 10:10:50;;;;;;;12.13;8.23;;;;;;;21.71;100.00;100496.31;4947347;28;20028;-68
2022/08/19 10:13:18;;;;;;;17.45;8.73;;;;;;;22.03;100.00;100502.16;4947287;28;20031;-68
2022/08/19 10:15:44;;;;;;;13.88;8.73;;;;;;;22.20;100.00;100487.97;4948236;28;20023;-67
2022/08/19 10:18:09;;;;;;;14.30;8.90;;;;;;;22.41;100.00;100477.84;4945178;28;20024;-67
2022/08/19 10:20:35;;;;;;;16.70;8.82;;;;;;;22.59;100.00;100477.84;4935672;28;20036;-68
2022/08/19 10:23:02;;;;;;;15.77;8.60;;;;;;;22.79;100.00;100486.63;4968495;28;20429;-68
2022/08/19 10:25:28;;;;;;;10.80;7.88;;;;;;;22.97;100.00;100482.13;4953146;29;20114;-68
2022/08/19 10:27:53;;;;;;;13.77;7.50;;;;;;;22.99;100.00;100472.06;4950243;28;20023;-68
2022/08/19 10:30:20;;;;;;;13.57;7.75;;;;;;;23.07;100.00;100471.31;4944229;28;20085;-67
2022/08/19 10:32:46;;;;;;;14.23;7.38;;;;;;;23.11;100.00;100473.53;4951554;28;20486;-67
2022/08/19 10:35:12;;;;;;;14.07;7.07;;;;;;;23.18;100.00;100474.59;4945968;28;20031;-67
2022/08/19 10:37:38;;;;;;;13.43;7.60;;;;;;;23.35;100.00;100465.63;4937113;28;20110;-67
2022/08/19 10:40:08;;;;;;;10.57;6.90;;;;;;;23.42;100.00;100477.47;4933653;28;20102;-68
2022/08/19 10:42:34;;;;;;;10.77;6.13;;;;;;;23.20;100.00;100467.22;4944175;28;20027;-68
2022/08/19 10:45:00;;;;;;;8.85;5.88;;;;;;;23.08;100.00;100457.75;4951160;28;20042;-67
2022/08/19 10:47:26;;;;;;;10.70;5.95;;;;;;;22.97;100.00;100476.75;4945193;28;20035;-68
2022/08/19 10:52:37;;;;;;;7.75;6.13;;;;;;;22.95;100.00;100468.00;4953216;28;20368;-68
2022/08/19 10:57:49;;;;;;;9.77;5.60;;;;;;;23.08;100.00;100462.28;4929076;28;20041;-67
2022/08/19 11:00:15;;;;;;;13.43;4.95;;;;;;;23.18;100.00;100469.22;4939015;28;20608;-67
2022/08/19 11:02:41;;;;;;;12.32;5.00;;;;;;;23.19;100.00;100468.22;4952893;28;20027;-68
2022/08/19 11:05:09;;;;;;;9.02;5.32;;;;;;;23.08;100.00;100468.47;4947601;28;20046;-67
2022/08/19 11:07:35;;;;;;;6.03;4.78;;;;;;;22.95;100.00;100454.59;4952557;28;20023;-67
2022/08/19 11:10:02;;;;;;;9.55;4.25;;;;;;;23.00;100.00;100451.47;4946574;28;20046;-67
2022/08/19 11:12:28;;;;;;;6.65;4.68;;;;;;;23.14;100.00;100456.28;4949532;28;20020;-67
2022/08/19 11:14:54;;;;;;;13.52;5.10;;;;;;;23.51;100.00;100458.75;4938945;28;20063;-68
2022/08/19 11:17:19;;;;;;;7.25;4.28;;;;;;;23.61;100.00;100446.91;4937261;28;20038;-67
2022/08/19 11:19:48;;;;;;;6.20;4.13;;;;;;;23.26;100.00;100455.84;4940438;28;20028;-67
2022/08/19 11:22:13;;;;;;;9.07;5.75;;;;;;;23.19;100.00;100452.13;4949944;28;20034;-68
2022/08/19 11:24:38;;;;;;;8.77;4.30;;;;;;;23.32;100.00;100444.50;4941367;28;20035;-68